createdAt,value
2019-04-07T00:02:13.054Z,20.10
2019-04-07T00:04:44.219Z,18.47
2019-04-07T00:07:53.079Z,18.03
2019-04-07T00:16:40.622Z,18.67
2019-04-07T00:19:10.000Z,18.27
2019-04-07T00:25:13.841Z,17.23
2019-04-07T00:27:43.717Z,17.33
2019-04-07T00:30:53.748Z,17.60
2019-04-07T00:33:23.334Z,17.97
2019-04-07T00:35:52.914Z,17.63
2019-04-07T00:39:02.689Z,18.53
2019-04-07T00:47:37.285Z,17.33
2019-04-07T00:53:09.972Z,17.03
2019-04-07T00:55:39.697Z,17.10
2019-04-07T00:58:10.624Z,17.67
2019-04-07T01:00:58.966Z,17.00
2019-04-07T01:03:29.051Z,16.63
2019-04-07T01:06:39.517Z,16.70
2019-04-07T01:12:36.946Z,16.60
2019-04-07T01:18:08.783Z,16.90
2019-04-07T01:20:39.576Z,18.27
2019-04-07T01:23:09.482Z,16.43
2019-04-07T01:25:39.525Z,17.30
2019-04-07T01:28:10.109Z,17.40
2019-04-07T01:30:40.386Z,17.53
2019-04-07T01:36:05.982Z,18.33
2019-04-07T01:42:03.851Z,17.80
2019-04-07T01:47:47.770Z,17.30
2019-04-07T01:50:57.119Z,17.50
2019-04-07T01:53:46.677Z,18.13
2019-04-07T01:56:24.781Z,17.10
2019-04-07T01:59:13.348Z,15.93
2019-04-07T02:04:57.967Z,17.80
2019-04-07T02:10:56.278Z,15.37
2019-04-07T02:13:45.103Z,16.70
2019-04-07T02:16:33.484Z,16.80
2019-04-07T02:22:23.844Z,16.30
2019-04-07T02:28:03.365Z,16.10
2019-04-07T02:30:52.287Z,16.23
2019-04-07T02:33:40.552Z,15.97
2019-04-07T02:36:31.341Z,16.20
2019-04-07T02:42:10.964Z,15.07
2019-04-07T02:45:00.183Z,15.60
2019-04-07T02:50:43.475Z,15.90
2019-04-07T02:53:51.112Z,15.27
2019-04-07T02:56:39.879Z,14.77
2019-04-07T02:59:20.339Z,15.30
2019-04-07T03:02:08.826Z,15.70
2019-04-07T03:05:17.523Z,15.63
2019-04-07T03:08:05.919Z,15.60
2019-04-07T03:10:54.160Z,16.27
2019-04-07T03:14:03.740Z,15.13
2019-04-07T03:19:48.693Z,16.70
2019-04-07T03:25:38.655Z,16.27
2019-04-07T03:28:27.255Z,15.50
2019-04-07T03:31:17.660Z,15.77
2019-04-07T03:34:26.722Z,15.83
2019-04-07T03:37:22.963Z,15.93
2019-04-07T03:39:47.041Z,16.27
2019-04-07T03:42:56.293Z,15.77
2019-04-07T03:45:41.675Z,15.40
2019-04-07T03:48:30.491Z,14.47
2019-04-07T03:54:21.111Z,14.93
2019-04-07T03:56:58.862Z,15.70
2019-04-07T03:59:47.205Z,14.77
2019-04-07T04:05:08.144Z,15.10
2019-04-07T04:07:56.770Z,15.80
2019-04-07T04:11:06.304Z,14.33
2019-04-07T04:13:56.101Z,14.27
2019-04-07T04:16:44.562Z,14.97
2019-04-07T04:19:15.506Z,14.97
2019-04-07T04:21:47.827Z,15.17
2019-04-07T04:24:18.544Z,15.53
2019-04-07T04:26:50.114Z,14.40
2019-04-07T04:29:20.138Z,15.20
2019-04-07T04:32:30.979Z,14.67
2019-04-07T04:35:01.496Z,14.60
2019-04-07T04:37:40.358Z,15.20
2019-04-07T04:43:15.990Z,14.57
2019-04-07T04:45:46.145Z,14.57
2019-04-07T04:48:17.397Z,14.03
2019-04-07T04:50:47.877Z,15.37
2019-04-07T04:53:18.316Z,15.00
2019-04-07T05:01:51.350Z,14.33
2019-04-07T05:04:22.966Z,14.10
2019-04-07T05:06:53.666Z,12.97
2019-04-07T05:09:24.797Z,13.73
2019-04-07T05:17:59.145Z,14.17
2019-04-07T05:20:28.659Z,14.13
2019-04-07T05:22:58.622Z,14.80
2019-04-07T05:28:39.610Z,13.03
2019-04-07T05:31:11.313Z,13.67
2019-04-07T05:36:36.905Z,13.77
2019-04-07T05:39:08.658Z,13.80
2019-04-07T05:41:39.578Z,13.53
2019-04-07T05:44:09.137Z,13.00
2019-04-07T05:46:40.122Z,14.33
2019-04-07T05:49:09.649Z,14.27
2019-04-07T05:54:34.111Z,13.57
2019-04-07T05:57:04.283Z,13.07
2019-04-07T06:02:36.323Z,13.90
2019-04-07T06:08:22.360Z,13.37
2019-04-07T06:10:39.289Z,13.07
2019-04-07T06:13:48.713Z,13.03
2019-04-07T06:16:20.972Z,13.87
2019-04-07T06:18:51.426Z,13.77
2019-04-07T06:21:21.176Z,12.80
2019-04-07T06:29:33.464Z,11.97
2019-04-07T06:38:05.287Z,12.60
2019-04-07T06:43:41.218Z,13.10
2019-04-07T06:46:50.202Z,11.83
2019-04-07T06:49:42.761Z,11.70
2019-04-07T06:52:28.608Z,11.63
2019-04-07T06:55:16.875Z,12.13
2019-04-07T06:58:08.070Z,11.13
2019-04-07T07:01:15.653Z,11.10
2019-04-07T07:04:08.639Z,11.57
2019-04-07T07:06:54.172Z,11.20
2019-04-07T07:09:42.699Z,10.97
2019-04-07T07:12:38.040Z,10.47
2019-04-07T07:15:23.394Z,10.33
2019-04-07T07:18:13.201Z,10.30
2019-04-07T07:21:13.380Z,9.23
2019-04-07T07:23:47.666Z,9.53
2019-04-07T07:26:15.994Z,9.73
2019-04-07T07:28:45.773Z,9.20
2019-04-07T07:34:18.775Z,9.20
2019-04-07T07:36:52.916Z,9.97
2019-04-07T07:39:19.806Z,9.70
2019-04-07T07:44:47.087Z,10.17
2019-04-07T07:47:27.906Z,10.07
2019-04-07T07:49:57.617Z,9.73
2019-04-07T07:52:26.954Z,10.57
2019-04-07T07:54:59.894Z,10.20
2019-04-07T07:57:27.674Z,9.73
2019-04-07T08:09:21.124Z,10.60
2019-04-07T08:11:46.730Z,9.67
2019-04-07T08:14:18.325Z,9.93
2019-04-07T08:16:47.973Z,10.33
2019-04-07T08:25:33.590Z,9.60
2019-04-07T08:28:04.694Z,10.80
2019-04-07T08:30:36.100Z,9.47
2019-04-07T08:33:46.697Z,9.80
2019-04-07T08:36:17.285Z,9.60
2019-04-07T08:38:51.719Z,9.97
2019-04-07T08:41:19.512Z,10.10
2019-04-07T08:43:53.274Z,9.60
2019-04-07T08:49:12.783Z,9.00
2019-04-07T08:51:43.872Z,9.03
2019-04-07T09:00:17.446Z,9.43
2019-04-07T09:02:59.192Z,9.07
2019-04-07T09:05:20.548Z,8.53
2019-04-07T09:07:48.999Z,8.97
2019-04-07T09:10:27.397Z,10.00
2019-04-07T09:13:36.365Z,9.03
2019-04-07T09:19:18.185Z,9.13
2019-04-07T09:22:07.427Z,9.83
2019-04-07T09:24:57.845Z,9.27
2019-04-07T09:33:49.913Z,9.33
2019-04-07T09:36:39.101Z,8.70
2019-04-07T09:42:25.696Z,10.07
2019-04-07T09:45:33.405Z,9.30
2019-04-07T09:48:23.946Z,9.00
2019-04-07T09:54:09.047Z,9.67
2019-04-07T10:00:07.629Z,8.60
2019-04-07T10:08:58.947Z,10.27
2019-04-07T10:11:47.450Z,8.07
2019-04-07T10:17:29.290Z,8.10
2019-04-07T10:20:21.816Z,8.50
2019-04-07T10:23:08.412Z,8.57
2019-04-07T10:28:28.743Z,8.30
2019-04-07T10:34:31.999Z,7.37
2019-04-07T10:37:21.919Z,7.70
2019-04-07T10:39:58.213Z,7.60
2019-04-07T10:42:46.310Z,7.97
2019-04-07T10:48:35.736Z,7.50
2019-04-07T10:51:25.718Z,7.80
2019-04-07T10:54:14.150Z,7.63
2019-04-07T11:00:11.260Z,7.63
2019-04-07T11:08:56.618Z,7.23
2019-04-07T11:17:49.209Z,6.53
2019-04-07T11:26:40.350Z,6.70
2019-04-07T11:32:28.909Z,6.57
2019-04-07T11:35:17.176Z,7.27
2019-04-07T11:41:01.565Z,6.87
2019-04-07T11:49:48.441Z,6.60
2019-04-07T11:58:44.080Z,5.90
2019-04-07T12:01:53.051Z,6.17
2019-04-07T12:04:30.690Z,5.60
2019-04-07T12:07:21.935Z,5.87
2019-04-07T12:13:17.184Z,5.20
2019-04-07T12:16:05.713Z,5.17
2019-04-07T12:18:54.531Z,5.33
2019-04-07T12:21:45.041Z,5.80
2019-04-07T12:24:59.247Z,5.07
2019-04-07T12:27:45.958Z,4.83
2019-04-07T12:30:55.305Z,5.17
2019-04-07T12:33:43.667Z,5.43
2019-04-07T12:36:32.370Z,4.30
2019-04-07T12:39:22.408Z,4.53
2019-04-07T12:42:11.346Z,4.13
2019-04-07T12:45:00.413Z,4.50
2019-04-07T12:48:09.267Z,3.83
2019-04-07T12:56:57.708Z,3.60
2019-04-07T13:09:16.114Z,3.93
2019-04-07T13:11:57.170Z,4.03
2019-04-07T13:14:45.993Z,3.03
2019-04-07T13:17:23.725Z,3.63
2019-04-07T13:20:12.946Z,3.60
2019-04-07T13:23:02.143Z,3.10
2019-04-07T13:25:53.302Z,3.30
2019-04-07T13:31:57.723Z,4.73
2019-04-07T13:34:57.682Z,3.40
2019-04-07T13:37:35.917Z,3.20
2019-04-07T13:40:24.189Z,3.13
2019-04-07T13:43:34.957Z,3.10
2019-04-07T13:46:22.071Z,2.70
2019-04-07T13:49:27.150Z,3.70
2019-04-07T13:52:32.308Z,3.00
2019-04-07T13:55:20.749Z,2.50
2019-04-07T13:58:09.702Z,3.10
2019-04-07T14:00:48.250Z,3.10
2019-04-07T14:03:30.178Z,3.00
2019-04-07T14:06:28.366Z,2.90
2019-04-07T14:09:31.388Z,3.30
2019-04-07T14:12:17.677Z,2.50
2019-04-07T14:15:06.123Z,2.80
2019-04-07T14:17:54.845Z,2.57
2019-04-07T14:24:04.739Z,2.70
2019-04-07T14:26:53.154Z,2.10
2019-04-07T14:32:50.696Z,2.20
2019-04-07T14:35:44.207Z,3.20
2019-04-07T14:38:34.493Z,2.40
2019-04-07T14:41:24.722Z,2.37
2019-04-07T14:47:28.345Z,2.20
2019-04-07T14:53:20.041Z,2.30
2019-04-07T14:56:21.840Z,2.30
2019-04-07T14:59:31.014Z,2.50
2019-04-07T15:08:10.600Z,2.30
2019-04-07T15:13:33.646Z,1.80
2019-04-07T15:16:03.492Z,2.10
2019-04-07T15:18:33.845Z,2.13
2019-04-07T15:21:03.569Z,2.00
2019-04-07T15:23:33.464Z,3.10
2019-04-07T15:26:03.404Z,1.80
2019-04-07T15:29:12.641Z,1.80
2019-04-07T15:31:43.748Z,2.43
2019-04-07T15:34:15.312Z,1.77
2019-04-07T15:36:48.429Z,1.77
2019-04-07T15:39:18.288Z,1.57
2019-04-07T15:41:47.814Z,2.87
2019-04-07T15:44:17.702Z,1.40
2019-04-07T15:46:52.395Z,1.97
2019-04-07T15:49:18.472Z,1.77
2019-04-07T15:51:48.704Z,1.80
2019-04-07T15:54:22.374Z,1.80
2019-04-07T15:56:50.514Z,1.80
2019-04-07T15:59:20.991Z,1.50
2019-04-07T16:05:02.410Z,1.90
2019-04-07T16:13:33.937Z,2.00
2019-04-07T16:16:03.922Z,1.70
2019-04-07T16:18:36.998Z,1.93
2019-04-07T16:21:07.182Z,1.80
2019-04-07T16:23:36.395Z,1.80
2019-04-07T16:26:06.625Z,2.00
2019-04-07T16:28:36.507Z,1.73
2019-04-07T16:31:06.551Z,1.67
2019-04-07T16:33:37.202Z,1.50
2019-04-07T16:36:08.660Z,1.67
2019-04-07T16:38:38.567Z,1.50
2019-04-07T16:41:12.297Z,1.63
2019-04-07T16:43:40.962Z,1.53
2019-04-07T16:46:54.662Z,1.50
2019-04-07T16:49:23.651Z,1.57
2019-04-07T16:52:34.129Z,1.57
2019-04-07T16:55:04.349Z,1.30
2019-04-07T16:57:33.784Z,1.40
2019-04-07T17:00:05.048Z,1.30
2019-04-07T17:02:34.895Z,1.00
2019-04-07T17:05:43.641Z,1.30
2019-04-07T17:08:17.748Z,1.53
2019-04-07T17:10:45.410Z,1.10
2019-04-07T17:13:20.500Z,1.20
2019-04-07T17:15:46.125Z,1.20
2019-04-07T17:18:43.656Z,1.10
2019-04-07T17:21:15.909Z,0.93
2019-04-07T17:23:45.668Z,1.00
2019-04-07T17:26:15.242Z,0.73
2019-04-07T17:28:47.104Z,0.90
2019-04-07T17:31:16.173Z,0.90
2019-04-07T17:33:45.823Z,0.97
2019-04-07T17:36:18.823Z,0.97
2019-04-07T17:38:53.590Z,0.60
2019-04-07T17:41:23.462Z,0.93
2019-04-07T17:44:16.050Z,0.50
2019-04-07T17:47:08.414Z,0.70
2019-04-07T17:49:50.669Z,0.73
2019-04-07T17:52:40.468Z,0.57
2019-04-07T17:55:27.979Z,0.70
2019-04-07T17:58:10.178Z,0.80
2019-04-07T18:02:37.516Z,0.70
2019-04-07T18:05:48.560Z,0.60
2019-04-07T18:08:41.808Z,0.70
2019-04-07T18:11:29.280Z,0.70
2019-04-07T18:17:13.889Z,0.90
2019-04-07T18:20:06.561Z,0.77
2019-04-07T18:22:54.488Z,0.70
2019-04-07T18:26:05.330Z,0.73
2019-04-07T18:32:07.533Z,0.80
2019-04-07T18:34:49.684Z,1.00
2019-04-07T18:37:31.180Z,0.70
2019-04-07T18:46:22.530Z,1.03
2019-04-07T18:49:11.454Z,0.97
2019-04-07T18:52:02.542Z,1.10
2019-04-07T18:54:51.076Z,0.80
2019-04-07T18:57:44.722Z,1.10
2019-04-07T19:00:37.884Z,1.20
2019-04-07T19:03:26.504Z,1.13
2019-04-07T19:06:06.728Z,1.07
2019-04-07T19:08:41.868Z,0.80
2019-04-07T19:11:37.298Z,1.20
2019-04-07T19:14:43.652Z,1.00
2019-04-07T19:17:31.688Z,1.30
2019-04-07T19:20:20.379Z,1.50
2019-04-07T19:22:56.915Z,1.13
2019-04-07T19:25:36.444Z,0.80
2019-04-07T19:28:15.713Z,1.27
2019-04-07T19:34:20.348Z,1.20
2019-04-07T19:37:10.223Z,0.93
2019-04-07T19:40:10.114Z,1.10
2019-04-07T19:42:58.421Z,0.90
2019-04-07T19:45:55.140Z,1.30
2019-04-07T19:48:40.617Z,1.00
2019-04-07T19:51:15.617Z,1.03
2019-04-07T19:53:53.616Z,1.53
2019-04-07T19:57:00.516Z,0.90
2019-04-07T19:59:55.067Z,1.03
2019-04-07T20:02:41.169Z,1.30
2019-04-07T20:05:29.956Z,1.00
2019-04-07T20:08:21.387Z,0.57
2019-04-07T20:11:09.818Z,0.87
2019-04-07T20:17:16.413Z,1.17
2019-04-07T20:22:56.992Z,1.20
2019-04-07T20:29:04.567Z,0.87
2019-04-07T20:31:52.059Z,1.47
2019-04-07T20:34:27.943Z,1.00
2019-04-07T20:37:17.204Z,1.00
2019-04-07T20:39:56.713Z,1.30
2019-04-07T20:42:48.499Z,0.97
2019-04-07T20:45:32.376Z,0.70
2019-04-07T20:48:28.955Z,1.00
2019-04-07T20:51:10.329Z,0.90
2019-04-07T20:54:07.781Z,0.97
2019-04-07T20:57:03.003Z,0.60
2019-04-07T21:00:12.287Z,0.60
2019-04-07T21:03:15.139Z,0.60
2019-04-07T21:05:53.453Z,0.83
2019-04-07T21:08:42.139Z,0.40
2019-04-07T21:14:32.474Z,0.70
2019-04-07T21:17:21.707Z,0.80
2019-04-07T21:20:11.865Z,0.87
2019-04-07T21:26:15.507Z,0.80
2019-04-07T21:29:22.805Z,0.60
2019-04-07T21:32:12.139Z,0.97
2019-04-07T21:35:02.136Z,0.60
2019-04-07T21:37:51.936Z,0.67
2019-04-07T21:40:52.668Z,0.73
2019-04-07T21:44:01.770Z,0.57
2019-04-07T21:46:52.097Z,0.70
2019-04-07T21:49:41.876Z,0.40
2019-04-07T21:52:54.467Z,0.47
2019-04-07T21:58:35.739Z,0.80
2019-04-07T22:04:28.578Z,0.80
2019-04-07T22:07:15.669Z,0.73
2019-04-07T22:15:22.610Z,0.50
2019-04-07T22:17:54.248Z,0.80
2019-04-07T22:20:25.072Z,0.50
2019-04-07T22:29:09.791Z,0.70
2019-04-07T22:35:06.577Z,0.67
2019-04-07T22:37:35.688Z,0.50
2019-04-07T22:40:48.023Z,0.60
2019-04-07T22:43:20.081Z,0.50
2019-04-07T22:45:59.045Z,0.60
2019-04-07T22:54:32.840Z,0.57
2019-04-07T22:57:03.150Z,1.93
2019-04-07T23:02:47.198Z,0.50
2019-04-07T23:05:17.097Z,0.70
2019-04-07T23:07:46.781Z,0.60
2019-04-07T23:10:56.016Z,0.90
2019-04-07T23:13:27.917Z,0.40
2019-04-07T23:31:04.299Z,0.40
2019-04-07T23:33:34.661Z,0.60
2019-04-07T23:36:05.868Z,0.50
2019-04-07T23:41:42.339Z,0.37
2019-04-07T23:44:23.492Z,0.70
2019-04-07T23:47:05.103Z,0.70
2019-04-07T23:49:34.613Z,0.50
2019-04-07T23:52:04.772Z,0.60
2019-04-07T23:54:35.296Z,1.00
